FW2746 Weather Reports


Display with metric or nautical units.
time (UTC)temp
F
wind
direction
speed
MPH
gust
MPH
rain 1hr
in
rain 24hr
in
rain mn
in
humidity
%
barometer
mb
20200329064605 69 260 5.0 13.0 0.00 0.23 0.23 63 1008.5
20200329064106 69 325 5.0 6.0 0.00 0.23 0.23 62 1008.5
20200329063605 69 259 5.0 9.0 0.00 0.23 0.23 62 1008.5
20200329063105 69 314 5.0 10.0 0.00 0.23 0.23 62 1008.5
20200329062605 69 278 5.0 12.0 0.00 0.23 0.23 62 1008.5
20200329062105 69 268 5.0 8.0 0.00 0.23 0.23 64 1008.5
20200329061605 68 256 3.0 14.0 0.00 0.23 0.23 65 1008.5
20200329061106 68 0 3.0 13.0 0.00 0.23 0.23 66 1008.5
20200329060605 67 339 3.0 9.0 0.00 0.23 0.23 68 1008.4
20200329060105 67 324 3.0 8.0 0.01 0.23 0.23 73 1008.4
20200329055606 66 322 4.0 9.0 0.01 0.23 0.23 74 1008.4
20200329055105 65 267 5.0 6.0 0.02 0.23 0.23 79 1008.4
20200329054605 64 298 3.0 10.0 0.03 0.23 0.23 82 1008.4
20200329054106 63 318 3.0 10.0 0.04 0.23 0.23 85 1008.4
20200329053605 62 307 2.0 10.0 0.05 0.23 0.23 89 1008.5
20200329053105 61 253 2.0 8.0 0.05 0.23 0.23 90 1008.5
20200329052605 60 260 4.0 6.0 0.06 0.23 0.23 90 1008.5
20200329052105 60 292 5.0 8.0 0.06 0.23 0.23 89 1008.9
20200329051605 60 268 5.0 8.0 0.06 0.23 0.23 89 1008.9
20200329051105 60 321 5.0 12.0 0.07 0.23 0.23 89 1008.9
20200329050605 60 262 3.0 9.0 0.08 0.23 0.23 90 1009.6
20200329050105 59 343 3.0 13.0 0.09 0.22 0.22 90 1009.6
20200329045605 59 325 2.0 7.0 0.09 0.22 0.22 90 1009.6
20200329045105 59 299 2.0 12.0 0.09 0.21 0.21 90 1010.4
20200329044605 59 344 3.0 12.0 0.10 0.20 0.20 90 1010.4
20200329044105 59 304 3.0 7.0 0.15 0.19 0.19 89 1010.4
20200329043605 59 321 2.0 7.0 0.14 0.18 0.18 90 1010.8
20200329043105 59 275 2.0 10.0 0.15 0.18 0.18 90 1010.8
20200329042605 59 312 2.0 5.0 0.16 0.17 0.17 91 1010.8
20200329042105 59 324 2.0 6.0 0.17 0.17 0.17 90 1011.0
20200329041605 59 337 2.0 5.0 0.17 0.17 0.17 90 1011.0
20200329041105 59 269 2.0 5.0 0.16 0.16 0.16 89 1011.0
20200329040605 60 334 2.0 6.0 0.15 0.15 0.15 88 1011.5
20200329040105 60 288 2.0 8.0 0.13 0.13 0.13 87 1011.5
20200329035605 60 242 5.0 8.0 0.13 0.13 0.13 85 1011.5
20200329035105 61 283 5.0 8.0 0.12 0.12 0.12 83 1011.4
20200329034605 63 305 3.0 12.0 0.10 0.10 0.10 80 1011.4
20200329034105 64 246 3.0 9.0 0.04 0.04 0.04 76 1011.4
20200329033605 67 239 3.0 14.0 0.04 0.04 0.04 73 1010.4
20200329033105 69 243 3.0 7.0 0.03 0.03 0.03 73 1010.4
20200329032605 70 313 3.0 7.0 0.01 0.01 0.01 67 1010.4
20200329032105 71 301 3.0 10.0 0.00 0.00 0.00 62 1010.6
20200329031605 71 330 3.0 10.0 0.00 0.00 0.00 61 1010.6
20200329031105 71 282 3.0 8.0 0.00 0.00 0.00 60 1010.6
20200329030605 71 352 5.0 8.0 0.00 0.00 0.00 60 1010.6
20200329030105 71 325 5.0 6.0 0.00 0.00 0.00 61 1010.6
20200329025605 71 305 5.0 8.0 0.00 0.00 0.00 61 1010.6
20200329025105 70 323 5.0 10.0 0.00 0.00 0.00 61 1010.8
20200329024605 70 351 2.0 14.0 0.00 0.00 0.00 62 1010.8
20200329024106 70 31 2.0 8.0 0.00 0.00 0.00 62 1010.8
20200329023605 69 284 5.0 5.0 0.00 0.00 0.00 63 1010.8
20200329023105 69 357 5.0 9.0 0.00 0.00 0.00 63 1010.8
20200329022604 69 284 3.0 10.0 0.00 0.00 0.00 63 1010.8
20200329022105 69 346 3.0 12.0 0.00 0.00 0.00 62 1010.9
20200329021605 69 17 3.0 12.0 0.00 0.00 0.00 63 1010.9
20200329021105 69 6 2.0 10.0 0.00 0.00 0.00 62 1010.9
20200329020605 70 335 6.0 10.0 0.00 0.00 0.00 62 1011.1
20200329020105 69 278 7.0 6.0 0.00 0.00 0.00 63 1011.1
20200329015605 69 340 7.0 17.0 0.00 0.00 0.00 61 1011.1
20200329015105 70 352 7.0 13.0 0.00 0.00 0.00 61 1011.2
20200329014605 70 4 5.0 12.0 0.00 0.00 0.00 61 1011.2
20200329014105 70 3 5.0 16.0 0.00 0.00 0.00 61 1011.2
20200329013605 69 353 6.0 10.0 0.00 0.00 0.00 62 1011.6
20200329013105 69 11 6.0 14.0 0.00 0.00 0.00 62 1011.6
20200329012605 69 297 7.0 13.0 0.00 0.00 0.00 61 1011.6
20200329012104 69 19 8.0 15.0 0.00 0.00 0.00 61 1011.8
20200329011605 69 309 6.0 14.0 0.00 0.00 0.00 61 1011.8
20200329011105 70 346 6.0 16.0 0.00 0.00 0.00 59 1011.8
20200329010605 71 7 7.0 16.0 0.00 0.00 0.00 59 1011.9
20200329010105 70 348 8.0 16.0 0.00 0.00 0.00 60 1011.9
20200329005605 69 317 6.0 18.0 0.00 0.00 0.00 61 1011.9
20200329005105 69 333 6.0 24.0 0.00 0.00 0.00 60 1012.0
20200329004605 69 10 5.0 16.0 0.00 0.00 0.00 61 1012.0
20200329004105 69 346 5.0 12.0 0.00 0.00 0.00 62 1012.0
20200329003605 69 4 6.0 10.0 0.00 0.00 0.00 63 1012.1
20200329003105 68 317 6.0 18.0 0.00 0.00 0.00 62 1012.1
20200329002604 68 331 7.0 12.0 0.00 0.00 0.00 63 1012.1
20200329002106 68 11 7.0 15.0 0.00 0.00 0.00 62 1012.2
20200329001605 68 333 8.0 21.0 0.00 0.00 0.00 62 1012.2
20200329001105 68 331 8.0 20.0 0.00 0.00 0.00 63 1012.2
20200329000605 67 304 8.0 16.0 0.00 0.00 0.00 62 1012.3
20200329000106 67 339 8.0 17.0 0.00 0.00 0.00 63 1012.3
20200328235605 67 357 8.0 16.0 0.00 0.00 0.00 63 1012.3
20200328235105 67 352 8.0 22.0 0.00 0.00 0.00 62 1012.5
20200328234605 68 358 7.0 23.0 0.00 0.00 0.00 62 1012.5
20200328234105 68 288 7.0 15.0 0.00 0.00 0.00 62 1012.5
20200328233605 68 350 8.0 22.0 0.00 0.00 0.00 62 1012.6
20200328233105 68 340 8.0 12.0 0.00 0.00 0.00 62 1012.6
20200328232605 68 352 7.0 21.0 0.00 0.00 0.00 63 1012.6
20200328232105 67 312 7.0 18.0 0.00 0.00 0.00 63 1012.5
20200328231604 67 329 7.0 15.0 0.00 0.00 0.00 64 1012.5
20200328231105 67 334 7.0 12.0 0.00 0.00 0.00 64 1012.5
20200328230605 66 313 8.0 14.0 0.00 0.00 0.00 64 1012.6
20200328230104 66 8 8.0 14.0 0.00 0.00 0.00 64 1012.6
20200328225605 67 355 8.0 20.0 0.00 0.00 0.00 62 1012.6
20200328225105 67 31 8.0 21.0 0.00 0.00 0.00 62 1012.6
20200328224605 67 3 8.0 14.0 0.00 0.00 0.00 63 1012.6
20200328224104 66 339 8.0 15.0 0.00 0.00 0.00 64 1012.6
20200328223604 66 8 7.0 18.0 0.00 0.00 0.00 63 1012.6
20200328223104 66 8 7.0 17.0 0.00 0.00 0.00 64 1012.6
20200328222604 65 25 8.0 14.0 0.00 0.00 0.00 64 1012.6
20200328222105 65 346 8.0 16.0 0.00 0.00 0.00 64 1012.7
20200328221605 65 11 7.0 15.0 0.00 0.00 0.00 63 1012.7
20200328221104 64 345 7.0 17.0 0.00 0.00 0.00 63 1012.7
20200328220604 64 330 9.0 13.0 0.00 0.00 0.00 64 1012.6
20200328220104 64 344 9.0 17.0 0.00 0.00 0.00 63 1012.6
20200328215604 64 346 9.0 21.0 0.00 0.00 0.00 63 1012.6
20200328215104 64 352 9.0 21.0 0.00 0.00 0.00 63 1012.6
20200328214604 64 344 6.0 21.0 0.00 0.00 0.00 63 1012.6
20200328214104 64 336 6.0 17.0 0.00 0.00 0.00 63 1012.6
20200328213605 64 338 7.0 14.0 0.00 0.00 0.00 63 1012.7
20200328213105 64 328 7.0 18.0 0.00 0.00 0.00 63 1012.7
20200328212604 65 334 7.0 15.0 0.00 0.00 0.00 63 1012.7
20200328212104 65 326 7.0 16.0 0.00 0.00 0.00 62 1012.7
20200328211604 65 6 6.0 17.0 0.00 0.00 0.00 62 1012.7
20200328211104 64 357 6.0 13.0 0.00 0.00 0.00 63 1012.7
20200328210604 64 316 8.0 15.0 0.00 0.00 0.00 62 1012.7
20200328210104 64 295 8.0 14.0 0.00 0.00 0.00 61 1012.7
20200328205604 64 353 7.0 15.0 0.00 0.00 0.00 60 1012.7
20200328205104 64 23 7.0 15.0 0.00 0.00 0.00 60 1012.7
20200328204604 64 344 6.0 14.0 0.00 0.00 0.00 60 1012.7
20200328204104 63 357 6.0 15.0 0.00 0.00 0.00 60 1012.7
20200328203605 63 354 6.0 14.0 0.00 0.00 0.00 59 1012.7
20200328203104 63 12 6.0 13.0 0.00 0.00 0.00 59 1012.7
20200328202605 63 4 7.0 14.0 0.00 0.00 0.00 58 1012.7
20200328202104 63 5 7.0 12.0 0.00 0.00 0.00 58 1012.8
20200328201604 63 10 6.0 17.0 0.00 0.00 0.00 58 1012.8
20200328201105 63 334 6.0 10.0 0.00 0.00 0.00 57 1012.8
20200328200605 63 337 7.0 16.0 0.00 0.00 0.00 57 1012.8
20200328200105 63 15 7.0 18.0 0.00 0.00 0.00 56 1012.8
20200328195604 63 4 6.0 12.0 0.00 0.00 0.00 56 1012.8
20200328195104 63 8 6.0 13.0 0.00 0.00 0.00 56 1012.9
20200328194604 63 21 7.0 10.0 0.00 0.00 0.00 55 1012.9
20200328194104 63 340 7.0 15.0 0.00 0.00 0.00 55 1012.9
20200328193604 63 354 7.0 15.0 0.00 0.00 0.00 55 1012.9
20200328193104 63 358 7.0 13.0 0.00 0.00 0.00 55 1012.9
20200328192604 63 19 7.0 14.0 0.00 0.00 0.00 55 1012.9
20200328192104 63 350 7.0 15.0 0.00 0.00 0.00 55 1013.0
20200328191604 63 344 7.0 15.0 0.00 0.00 0.00 54 1013.0
20200328191104 63 6 7.0 12.0 0.00 0.00 0.00 54 1013.0
20200328190604 63 19 7.0 12.0 0.00 0.00 0.00 53 1013.1
20200328190105 63 12 7.0 12.0 0.00 0.00 0.00 53 1013.1
20200328185604 64 4 8.0 15.0 0.00 0.00 0.00 53 1013.1
20200328185104 64 3 8.0 14.0 0.00 0.00 0.00 52 1013.1
20200328184604 64 357 8.0 17.0 0.00 0.00 0.00 52 1013.1
20200328184104 64 344 8.0 16.0 0.00 0.00 0.00 51 1013.1
20200328183604 64 341 9.0 16.0 0.00 0.00 0.00 51 1013.0
20200328183104 64 342 9.0 15.0 0.00 0.00 0.00 50 1013.0
20200328182604 65 354 10.0 17.0 0.00 0.00 0.00 50 1013.0
20200328182104 65 350 10.0 16.0 0.00 0.00 0.00 50 1012.8
20200328181604 65 323 9.0 18.0 0.00 0.00 0.00 50 1012.8
20200328181105 64 353 8.0 16.0 0.00 0.00 0.00 50 1012.8
20200328180604 64 349 7.0 18.0 0.00 0.00 0.00 50 1013.0
20200328180104 65 359 7.0 16.0 0.00 0.00 0.00 50 1013.0
20200328175605 65 327 8.0 17.0 0.00 0.00 0.00 50 1013.0
20200328175106 65 342 8.0 14.0 0.00 0.00 0.00 50 1013.1
20200328174607 65 318 9.0 14.0 0.00 0.00 0.00 49 1013.1
20200328174106 65 335 9.0 16.0 0.00 0.00 0.00 49 1013.1
20200328173606 65 329 7.0 18.0 0.00 0.00 0.00 49 1013.3
20200328173107 65 350 7.0 14.0 0.00 0.00 0.00 49 1013.3
20200328172606 65 355 7.0 13.0 0.00 0.00 0.00 49 1013.3
20200328172106 65 334 7.0 16.0 0.00 0.00 0.00 49 1013.5
20200328171607 65 9 8.0 13.0 0.00 0.00 0.00 49 1013.5
20200328171107 65 339 8.0 17.0 0.00 0.00 0.00 48 1013.5
20200328170606 65 333 8.0 15.0 0.00 0.00 0.00 48 1013.6
20200328170107 66 347 8.0 17.0 0.00 0.00 0.00 48 1013.6
20200328165607 66 356 8.0 15.0 0.00 0.00 0.00 48 1013.6
20200328165106 66 353 8.0 14.0 0.00 0.00 0.00 48 1013.7
20200328164607 66 338 7.0 15.0 0.00 0.00 0.00 48 1013.7
20200328164107 66 338 7.0 18.0 0.00 0.00 0.00 48 1013.7
20200328163606 66 332 8.0 17.0 0.00 0.00 0.00 47 1013.6
20200328163106 66 334 8.0 15.0 0.00 0.00 0.00 47 1013.6
20200328162607 66 344 8.0 18.0 0.00 0.00 0.00 47 1013.6
20200328162107 66 319 8.0 13.0 0.00 0.00 0.00 47 1013.7
20200328161606 66 339 8.0 17.0 0.00 0.00 0.00 46 1013.7
20200328161107 66 323 8.0 17.0 0.00 0.00 0.00 46 1013.7
20200328160606 66 354 9.0 18.0 0.00 0.00 0.00 45 1013.7
20200328160107 66 320 9.0 21.0 0.00 0.00 0.00 44 1013.7
20200328155606 66 328 9.0 18.0 0.00 0.00 0.00 44 1013.7
20200328155106 67 319 9.0 17.0 0.00 0.00 0.00 43 1013.7
20200328154607 67 358 9.0 17.0 0.00 0.00 0.00 43 1013.7
20200328154106 67 354 9.0 18.0 0.00 0.00 0.00 43 1013.7
20200328153607 67 326 8.0 16.0 0.00 0.00 0.00 43 1013.8
20200328153106 67 327 8.0 17.0 0.00 0.00 0.00 44 1013.8
20200328152606 67 324 8.0 17.0 0.00 0.00 0.00 44 1013.8
20200328152106 67 338 8.0 15.0 0.00 0.00 0.00 44 1013.9
20200328151606 67 341 9.0 15.0 0.00 0.00 0.00 44 1013.9
20200328151106 67 330 9.0 15.0 0.00 0.00 0.00 44 1013.9
20200328150607 67 311 8.0 17.0 0.00 0.00 0.00 44 1013.9
20200328150107 67 341 8.0 16.0 0.00 0.00 0.00 44 1013.9
20200328145606 67 325 9.0 17.0 0.00 0.00 0.00 44 1013.9
20200328145107 67 315 9.0 18.0 0.00 0.00 0.00 44 1013.8
20200328144606 68 311 10.0 21.0 0.00 0.00 0.00 44 1013.8
20200328144107 68 344 10.0 18.0 0.00 0.00 0.00 44 1013.8
20200328143606 68 340 10.0 22.0 0.00 0.00 0.00 44 1014.2
20200328143106 68 324 10.0 21.0 0.00 0.00 0.00 44 1014.2
20200328142606 68 332 9.0 21.0 0.00 0.00 0.00 44 1014.2
20200328142106 68 331 9.0 24.0 0.00 0.00 0.00 44 1014.4
20200328141606 68 334 8.0 18.0 0.00 0.00 0.00 44 1014.4
20200328141106 68 320 8.0 16.0 0.00 0.00 0.00 44 1014.4
20200328140607 68 318 9.0 17.0 0.00 0.00 0.00 44 1014.7
20200328140107 68 348 9.0 16.0 0.00 0.00 0.00 44 1014.7
20200328135606 68 332 8.0 18.0 0.00 0.00 0.00 44 1014.7
20200328135106 68 341 8.0 22.0 0.00 0.00 0.00 44 1014.9
20200328134606 68 321 8.0 20.0 0.00 0.00 0.00 44 1014.9
20200328134106 68 352 8.0 13.0 0.00 0.00 0.00 44 1014.9
20200328133606 68 313 8.0 17.0 0.00 0.00 0.00 44 1015.1
20200328133106 68 324 8.0 13.0 0.00 0.00 0.00 44 1015.1
20200328132606 68 321 8.0 17.0 0.00 0.00 0.00 44 1015.1
20200328132106 68 349 8.0 20.0 0.00 0.00 0.00 44 1015.1
20200328131606 68 330 8.0 20.0 0.00 0.00 0.00 44 1015.1
20200328131107 68 345 8.0 17.0 0.00 0.00 0.00 44 1015.1
20200328130606 69 259 8.0 21.0 0.00 0.00 0.00 44 1015.4
20200328130106 69 347 8.0 16.0 0.00 0.00 0.00 44 1015.4
20200328125606 69 332 8.0 18.0 0.00 0.00 0.00 44 1015.4
20200328125106 69 337 8.0 16.0 0.00 0.00 0.00 44 1015.6
20200328124606 69 351 8.0 15.0 0.00 0.00 0.00 44 1015.6
20200328124120 69 324 8.0 17.0 0.00 0.00 0.00 44 1015.6
20200328123606 69 345 8.0 17.0 0.00 0.00 0.00 44 1015.7
20200328123106 69 355 8.0 17.0 0.00 0.00 0.00 44 1015.7
20200328122606 69 338 7.0 14.0 0.00 0.00 0.00 45 1015.7
20200328122106 69 334 7.0 16.0 0.00 0.00 0.00 45 1015.7
20200328121606 69 350 7.0 17.0 0.00 0.00 0.00 45 1015.7
20200328121106 69 338 7.0 14.0 0.00 0.00 0.00 45 1015.7
20200328120606 69 340 7.0 13.0 0.00 0.00 0.00 45 1015.8
20200328120106 69 320 7.0 17.0 0.00 0.00 0.00 45 1015.8
20200328115606 69 343 8.0 15.0 0.00 0.00 0.00 45 1015.8
20200328115105 69 344 8.0 14.0 0.00 0.00 0.00 45 1015.8
20200328114606 69 314 8.0 15.0 0.00 0.00 0.00 45 1015.8
20200328114106 69 319 8.0 16.0 0.00 0.00 0.00 45 1015.8
20200328113606 69 335 8.0 15.0 0.00 0.00 0.00 45 1015.9
20200328113106 69 297 8.0 17.0 0.00 0.00 0.00 45 1015.9
20200328112606 69 348 7.0 18.0 0.00 0.00 0.00 46 1015.9
20200328112106 69 330 7.0 16.0 0.00 0.00 0.00 46 1016.1
20200328111606 69 337 7.0 17.0 0.00 0.00 0.00 46 1016.1
20200328111106 69 352 7.0 16.0 0.00 0.00 0.00 46 1016.1
20200328110606 69 332 7.0 14.0 0.00 0.00 0.00 46 1016.1
20200328110106 69 7 7.0 15.0 0.00 0.00 0.00 46 1016.1
20200328105606 69 324 7.0 14.0 0.00 0.00 0.00 47 1016.1
20200328105106 69 344 7.0 14.0 0.00 0.00 0.00 47 1016.0
20200328104606 69 278 7.0 13.0 0.00 0.00 0.00 47 1016.0
20200328104106 69 342 7.0 16.0 0.00 0.00 0.00 47 1016.0
20200328103606 69 323 7.0 13.0 0.00 0.00 0.00 47 1015.9
20200328103106 69 344 7.0 15.0 0.00 0.00 0.00 47 1015.9
20200328102606 69 318 6.0 15.0 0.00 0.00 0.00 47 1015.9
20200328102106 69 325 6.0 13.0 0.00 0.00 0.00 47 1015.8
20200328101606 70 334 6.0 10.0 0.00 0.00 0.00 47 1015.8
20200328101106 70 332 6.0 13.0 0.00 0.00 0.00 47 1015.8
20200328100606 70 317 5.0 16.0 0.00 0.00 0.00 47 1015.9
20200328100106 70 330 5.0 14.0 0.00 0.00 0.00 47 1015.9
20200328095606 69 331 6.0 12.0 0.00 0.00 0.00 48 1015.9
20200328095106 70 321 6.0 12.0 0.00 0.00 0.00 48 1015.8
20200328094606 70 336 5.0 17.0 0.00 0.00 0.00 48 1015.8
20200328094106 69 8 5.0 12.0 0.00 0.00 0.00 48 1015.8
20200328093605 69 350 3.0 9.0 0.00 0.00 0.00 49 1015.9
20200328093106 69 352 2.0 8.0 0.00 0.00 0.00 50 1015.9
20200328092606 68 353 2.0 7.0 0.00 0.00 0.00 51 1015.9
20200328092105 67 335 2.0 14.0 0.00 0.00 0.00 53 1016.0
20200328091606 67 230 2.0 5.0 0.00 0.00 0.00 54 1016.0
20200328091105 66 52 2.0 5.0 0.00 0.00 0.00 55 1016.0
20200328090605 66 0 2.0 7.0 0.00 0.00 0.00 56 1015.9
20200328090106 66 232 2.0 3.0 0.00 0.00 0.00 58 1015.9
20200328085605 66 79 0.0 5.0 0.00 0.00 0.00 57 1015.9
20200328085105 67 123 0.0 5.0 0.00 0.00 0.00 57 1015.9
20200328084606 67 84 1.0 1.0 0.00 0.00 0.00 56 1015.9
20200328084106 68 30 1.0 3.0 0.00 0.00 0.00 55 1015.9
20200328083606 68 261 1.0 3.0 0.00 0.00 0.00 54 1016.0
20200328083106 69 154 1.0 3.0 0.00 0.00 0.00 53 1016.0
20200328082606 69 65 0.0 3.0 0.00 0.00 0.00 52 1016.0
20200328082105 70 109 0.0 2.0 0.00 0.00 0.00 51 1015.9
20200328081605 70 92 2.0 1.0 0.00 0.00 0.00 51 1015.9
20200328081106 71 92 2.0 3.0 0.00 0.00 0.00 50 1015.9
20200328080606 71 337 2.0 8.0 0.00 0.00 0.00 48 1015.9
20200328080106 72 267 2.0 5.0 0.00 0.00 0.00 49 1015.9
20200328075606 72 47 2.0 5.0 0.00 0.00 0.00 48 1015.9
20200328075106 72 325 2.0 8.0 0.00 0.00 0.00 47 1016.0
20200328074605 72 342 2.0 9.0 0.00 0.00 0.00 47 1016.0
20200328074105 73 347 2.0 3.0 0.00 0.00 0.00 48 1016.0
20200328073605 73 25 2.0 6.0 0.00 0.00 0.00 47 1015.9
20200328073106 73 4 2.0 8.0 0.00 0.00 0.00 47 1015.9
20200328072605 73 13 4.0 5.0 0.00 0.00 0.00 48 1015.9
20200328072106 74 348 5.0 7.0 0.00 0.00 0.00 46 1015.9
20200328071606 74 16 5.0 10.0 0.00 0.00 0.00 46 1015.9
20200328071105 74 351 5.0 13.0 0.00 0.00 0.00 46 1015.9
20200328070605 74 331 5.0 8.0 0.00 0.00 0.00 46 1016.0
20200328070105 74 17 5.0 10.0 0.00 0.00 0.00 46 1016.0
20200328065605 74 15 5.0 15.0 0.00 0.00 0.00 46 1016.0
20200328065106 74 127 5.0 10.0 0.00 0.00 0.00 46 1016.0